Forks Township, Pennsylvania
Current Conditions -  °F | °C
As of 4:51 PM on Sunday 23 Nov 2014 (Local Time) from KABE Reporting Station
Clear Clear  
Wind Chill: 53°   Ceiling: Unl
Heat Index: 53°   Visibility: 10mi
Dew Point: 25°   Wind: 5mph
Humidity: 34%   Direction: 150°SSE
Pressure: 30.09"   Gusts: NA
Location:  40.7421°N, 75.2249°W
Report Text: KABE 232151Z 15004KT 10SM CLR 12/M04 A3009 RMK AO2 SLP192 T01171039
Loading
Personal Weather Stations






























Interactive Weather Map New forecast layout! Learn more

10-Day Weather Forecast

Advertisements
Track Severe Weather on mobile